createdAt,value
2018-03-07T14:44:30.749Z,3.63
2018-03-07T14:46:57.346Z,3.57
2018-03-07T14:49:23.525Z,4.50
2018-03-07T14:51:55.587Z,5.00
2018-03-07T14:54:21.845Z,5.27
2018-03-07T14:56:48.024Z,4.60
2018-03-07T14:59:19.742Z,5.27
2018-03-07T15:01:51.692Z,7.47
2018-03-07T15:04:23.053Z,5.87
2018-03-07T15:08:53.597Z,7.00
2018-03-07T15:11:20.131Z,6.43
2018-03-07T15:13:46.577Z,7.17
2018-03-07T15:16:12.907Z,8.20
2018-03-07T15:18:39.135Z,16.17
2018-03-07T15:21:05.387Z,10.10
2018-03-07T15:23:36.615Z,12.77
2018-03-07T15:26:03.178Z,13.63
2018-03-07T15:28:34.422Z,13.00
2018-03-07T15:31:11.532Z,13.77
2018-03-07T15:33:43.676Z,14.10
2018-03-07T15:36:15.228Z,14.63
2018-03-07T15:38:46.475Z,13.10
2018-03-07T15:41:17.749Z,12.87
2018-03-07T15:43:49.340Z,13.47
2018-03-07T15:46:20.626Z,13.33
2018-03-07T15:48:47.123Z,13.33
2018-03-07T15:51:13.324Z,13.47
2018-03-07T15:53:49.811Z,12.57
2018-03-07T15:58:02.750Z,16.07
2018-03-07T16:00:33.988Z,15.53
2018-03-07T16:03:01.045Z,15.30
2018-03-07T16:05:27.263Z,15.93
2018-03-07T16:07:58.539Z,15.60
2018-03-07T16:10:30.707Z,15.03
2018-03-07T16:13:02.545Z,15.00
2018-03-07T16:15:28.979Z,15.10
2018-03-07T16:17:55.207Z,14.13
2018-03-07T16:20:26.415Z,14.53
2018-03-07T16:22:57.650Z,14.30
2018-03-07T16:25:29.062Z,14.37
2018-03-07T16:28:00.807Z,14.90
2018-03-07T16:30:37.377Z,15.50
2018-03-07T16:33:08.831Z,14.47
2018-03-07T16:35:35.085Z,14.70
2018-03-07T16:38:07.214Z,14.37
2018-03-07T16:40:34.679Z,14.10
2018-03-07T16:43:07.362Z,12.37
2018-03-07T16:45:39.937Z,12.37
2018-03-07T16:48:06.294Z,11.73
2018-03-07T16:50:37.541Z,11.70
2018-03-07T21:07:07.667Z,6.90
2018-03-07T21:15:49.100Z,5.73
2018-03-07T21:21:43.100Z,4.60
2018-03-07T21:24:34.731Z,4.33
2018-03-07T21:27:22.769Z,4.53
2018-03-07T21:32:53.217Z,4.93
2018-03-07T21:41:46.332Z,5.07
2018-03-07T21:44:31.109Z,5.57
2018-03-07T21:47:14.952Z,5.50
2018-03-07T21:49:57.873Z,6.20
2018-03-07T21:52:41.805Z,5.50
2018-03-07T21:55:25.659Z,5.60
2018-03-07T21:58:12.368Z,4.67
2018-03-07T22:00:54.045Z,5.07
2018-03-07T22:03:35.864Z,4.77
2018-03-07T22:06:13.884Z,5.07
2018-03-07T22:08:56.681Z,4.37
2018-03-07T22:11:46.980Z,5.03
2018-03-07T22:14:31.950Z,4.37
2018-03-07T22:17:09.647Z,14.23
2018-03-07T22:19:50.625Z,15.67
2018-03-07T22:22:35.691Z,16.27
2018-03-07T22:25:21.178Z,15.87
2018-03-07T22:28:04.813Z,16.23
2018-03-07T22:30:50.294Z,17.13
2018-03-07T22:33:30.862Z,16.40
2018-03-07T22:36:27.793Z,14.70
2018-03-07T22:39:10.168Z,14.87
2018-03-07T22:41:59.293Z,13.80
2018-03-07T22:44:41.054Z,13.93
2018-03-07T22:47:24.795Z,14.23
2018-03-07T22:50:20.509Z,13.77
2018-03-07T22:53:08.249Z,14.00
2018-03-07T22:55:49.534Z,13.53
2018-03-07T22:58:34.862Z,13.13
2018-03-07T23:01:12.604Z,13.47
2018-03-07T23:03:59.934Z,13.43
2018-03-07T23:06:36.704Z,13.33
2018-03-07T23:09:23.117Z,13.37
2018-03-07T23:12:10.137Z,13.30
2018-03-07T23:14:57.870Z,12.83
2018-03-07T23:17:40.177Z,12.93
2018-03-07T23:20:27.810Z,12.97
2018-03-07T23:23:16.861Z,11.83
2018-03-07T23:26:04.507Z,11.27
2018-03-07T23:28:47.428Z,10.97
2018-03-07T23:31:31.376Z,11.40
2018-03-07T23:34:28.528Z,12.27
2018-03-07T23:37:11.224Z,11.77
2018-03-07T23:39:57.134Z,10.33
2018-03-07T23:42:50.706Z,11.43
2018-03-07T23:45:36.803Z,10.83
2018-03-07T23:48:24.741Z,11.03
2018-03-07T23:51:11.079Z,11.00
2018-03-07T23:54:01.950Z,10.03
2018-03-07T23:56:49.584Z,10.40
2018-03-07T23:59:31.687Z,9.83
